createdAt,value
2019-04-13T11:09:21.078Z,49752
2019-04-13T11:10:16.289Z,62552
2019-04-13T11:11:38.575Z,65535
2019-04-13T11:12:38.949Z,49552
2019-04-13T11:13:38.398Z,65535
2019-04-13T11:14:38.418Z,65535
2019-04-13T11:15:38.465Z,65535
2019-04-13T11:16:38.455Z,65535
2019-04-13T11:17:38.507Z,65535
2019-04-13T11:18:38.494Z,65535
2019-04-13T11:19:40.495Z,65535
2019-04-13T11:20:38.571Z,20480
2019-04-13T11:21:38.611Z,15605
2019-04-13T11:22:38.838Z,13778
2019-04-13T11:23:44.872Z,12238
2019-04-13T11:24:38.621Z,10720
2019-04-13T11:25:38.647Z,10308
2019-04-13T11:26:38.681Z,9782
2019-04-13T11:27:39.685Z,9868
2019-04-13T11:28:39.208Z,11399
2019-04-13T11:29:38.735Z,13049
2019-04-13T11:30:38.748Z,35136
2019-04-13T11:31:38.768Z,65535
2019-04-13T11:32:38.789Z,65535
2019-04-13T11:33:38.859Z,65535
2019-04-13T11:34:38.949Z,65535
2019-04-13T11:35:38.993Z,65535
2019-04-13T11:36:39.034Z,65535
2019-04-13T11:37:39.086Z,65535
2019-04-13T11:38:39.170Z,65535
2019-04-13T11:39:41.329Z,65535
2019-04-13T11:40:39.191Z,65535
2019-04-13T11:41:39.214Z,65535
2019-04-13T11:42:39.259Z,20704
2019-04-13T11:43:39.316Z,65535
2019-04-13T11:44:39.346Z,18016
2019-04-13T11:45:40.356Z,15445
2019-04-13T11:46:39.375Z,13294
2019-04-13T11:47:39.416Z,12293
2019-04-13T11:48:39.447Z,11874
2019-04-13T11:49:39.458Z,10921
2019-04-13T11:50:40.226Z,10218
2019-04-13T11:51:39.490Z,9084
2019-04-13T11:52:39.505Z,7875
2019-04-13T11:53:40.641Z,7195
2019-04-13T11:54:40.622Z,7617
2019-04-13T11:55:39.643Z,8324
2019-04-13T11:56:39.656Z,8557
2019-04-13T11:57:39.684Z,8922
2019-04-13T11:58:39.710Z,9624
2019-04-13T11:59:39.764Z,11454
2019-04-13T12:00:39.809Z,12751
2019-04-13T12:01:39.871Z,14069
2019-04-13T12:02:39.892Z,18760
2019-04-13T12:03:39.909Z,53584
2019-04-13T12:04:39.977Z,65535
2019-04-13T12:05:40.011Z,65535
2019-04-13T12:06:40.040Z,65535
2019-04-13T12:07:40.088Z,65535
2019-04-13T12:08:40.072Z,65535
2019-04-13T12:09:49.453Z,65535
2019-04-13T12:10:41.172Z,61408
2019-04-13T12:11:40.223Z,56808
2019-04-13T12:12:40.255Z,65535
2019-04-13T12:13:40.337Z,65535
2019-04-13T12:14:40.401Z,65535
2019-04-13T12:15:41.454Z,65535
2019-04-13T12:16:40.525Z,65535
2019-04-13T12:17:40.547Z,65535
2019-04-13T12:18:41.592Z,65535
2019-04-13T12:19:40.612Z,65535
2019-04-13T12:20:40.675Z,65535
2019-04-13T12:21:40.776Z,65535
2019-04-13T12:22:40.839Z,65535
2019-04-13T12:23:40.939Z,65535
2019-04-13T12:24:40.923Z,65535
2019-04-13T12:25:40.947Z,65535
2019-04-13T12:26:43.256Z,65535
2019-04-13T12:27:41.156Z,65535
2019-04-13T12:28:41.083Z,26944
2019-04-13T12:29:42.117Z,29896
2019-04-13T12:30:42.704Z,21088
2019-04-13T12:31:41.176Z,65535
2019-04-13T12:32:41.190Z,65535
2019-04-13T12:33:41.289Z,65535
2019-04-13T12:34:41.444Z,65535
2019-04-13T12:35:41.380Z,65535
2019-04-13T12:36:41.405Z,65535
2019-04-13T12:37:41.409Z,65535
2019-04-13T12:38:49.547Z,65535
2019-04-13T12:39:42.654Z,65535
2019-04-13T12:40:43.511Z,65535
2019-04-13T12:41:41.700Z,65535
2019-04-13T12:42:41.725Z,65535
2019-04-13T12:43:41.758Z,65535
2019-04-13T12:44:41.780Z,65535
2019-04-13T12:45:41.817Z,65535
2019-04-13T12:46:41.844Z,65535
2019-04-13T12:47:44.127Z,65535
2019-04-13T12:48:42.019Z,65535
2019-04-13T12:49:43.020Z,65535
2019-04-13T12:50:42.098Z,15248
2019-04-13T12:51:42.111Z,13942
2019-04-13T12:52:42.133Z,13459
2019-04-13T12:53:42.150Z,14501
2019-04-13T12:54:42.247Z,16327
2019-04-13T12:55:42.329Z,65535
2019-04-13T12:56:42.422Z,52320
2019-04-13T12:57:42.441Z,65535
2019-04-13T12:58:42.506Z,65535
2019-04-13T12:59:43.611Z,65535
2019-04-13T13:00:42.650Z,65535
2019-04-13T13:01:44.926Z,65535
2019-04-13T13:02:42.780Z,65535
2019-04-13T13:03:49.948Z,65535
2019-04-13T13:04:42.909Z,65535
2019-04-13T13:05:42.963Z,65535
2019-04-13T13:06:42.975Z,65535
2019-04-13T13:07:43.012Z,28080
2019-04-13T13:08:43.038Z,18344
2019-04-13T13:09:43.066Z,17680
2019-04-13T13:10:43.256Z,16792
2019-04-13T13:11:44.131Z,14891
2019-04-13T13:12:45.613Z,14917
2019-04-13T13:13:43.373Z,14536
2019-04-13T13:14:44.381Z,14694
2019-04-13T13:15:43.379Z,44304
2019-04-13T13:16:46.070Z,50952
2019-04-13T13:17:43.396Z,10284
2019-04-13T13:18:44.405Z,9331
2019-04-13T13:19:45.127Z,8463
2019-04-13T13:20:43.484Z,7459
2019-04-13T13:21:43.549Z,5715
2019-04-13T13:22:43.574Z,4006
2019-04-13T13:23:43.586Z,3690
2019-04-13T13:24:43.837Z,3778
2019-04-13T13:25:43.619Z,3533
2019-04-13T13:26:48.413Z,3366
2019-04-13T13:27:43.605Z,3104
2019-04-13T13:28:44.109Z,2711
2019-04-13T13:29:43.717Z,2584
2019-04-13T13:30:43.773Z,2510
2019-04-13T13:31:43.811Z,2505
2019-04-13T13:32:43.854Z,2210
2019-04-13T13:33:43.897Z,1977
2019-04-13T13:34:43.940Z,1704
2019-04-13T13:35:43.939Z,1574
2019-04-13T13:36:44.860Z,1501
2019-04-13T13:37:44.281Z,1757
2019-04-13T13:38:44.606Z,2344
2019-04-13T13:39:45.645Z,2744
2019-04-13T13:40:44.736Z,3356
2019-04-13T13:41:44.539Z,3808
2019-04-13T13:42:44.758Z,4139
2019-04-13T13:43:45.504Z,4264
2019-04-13T13:44:44.678Z,4784
2019-04-13T13:45:44.925Z,5335
2019-04-13T13:46:44.525Z,6029
2019-04-13T13:47:44.549Z,6980
2019-04-13T13:48:44.565Z,8233
2019-04-13T13:49:44.615Z,9952
2019-04-13T13:50:44.627Z,11851
2019-04-13T13:51:55.418Z,15118
2019-04-13T13:52:45.731Z,19040
2019-04-13T13:53:44.877Z,19008
2019-04-13T13:54:44.886Z,19488
2019-04-13T13:55:44.928Z,16336
2019-04-13T13:56:44.974Z,16464
2019-04-13T13:57:45.124Z,25656
2019-04-13T13:58:47.199Z,29808
2019-04-13T13:59:45.283Z,32528
2019-04-13T14:00:45.453Z,52288
2019-04-13T14:01:45.544Z,64992
2019-04-13T14:02:47.394Z,65535
2019-04-13T14:03:45.727Z,59528
2019-04-13T14:04:45.776Z,61664
2019-04-13T14:05:45.902Z,65535
2019-04-13T14:06:46.045Z,65535
2019-04-13T14:07:46.217Z,59016
2019-04-13T14:08:46.199Z,47680
2019-04-13T14:09:46.331Z,40568
2019-04-13T14:10:48.634Z,20520
2019-04-13T14:11:46.444Z,21672
2019-04-13T14:12:46.492Z,21936
2019-04-13T14:13:46.462Z,23112
2019-04-13T14:14:46.510Z,14345
2019-04-13T14:15:46.550Z,11336
2019-04-13T14:16:47.937Z,9162
2019-04-13T14:17:50.317Z,6965
2019-04-13T14:18:46.859Z,5978
2019-04-13T14:19:47.902Z,4598
2019-04-13T14:20:47.189Z,3295
2019-04-13T14:21:47.029Z,2503
2019-04-13T14:22:47.143Z,1772
2019-04-13T14:23:47.152Z,2757
2019-04-13T14:24:50.034Z,3624
2019-04-13T14:25:47.587Z,3660
2019-04-13T14:26:47.216Z,3678
2019-04-13T14:27:47.274Z,3760
2019-04-13T14:28:47.336Z,3702
2019-04-13T14:29:47.423Z,3586
2019-04-13T14:30:47.456Z,3347
2019-04-13T14:31:47.472Z,3075
2019-04-13T14:32:47.522Z,2611
2019-04-13T14:33:47.546Z,2045
2019-04-13T14:34:47.605Z,1599
2019-04-13T14:35:47.610Z,1293
2019-04-13T14:36:47.636Z,1044
2019-04-13T14:37:50.601Z,923
2019-04-13T14:38:47.759Z,874
2019-04-13T14:39:48.770Z,917
2019-04-13T14:40:55.522Z,1081
2019-04-13T14:41:47.933Z,1490
2019-04-13T14:42:47.938Z,1520
2019-04-13T14:43:48.742Z,1280
2019-04-13T14:44:48.025Z,1106
2019-04-13T14:45:48.062Z,1125
2019-04-13T14:46:48.104Z,1258
2019-04-13T14:47:48.138Z,1819
2019-04-13T14:48:48.246Z,2133
2019-04-13T14:49:48.963Z,2081
2019-04-13T14:50:49.347Z,1902
2019-04-13T14:51:52.385Z,1910
2019-04-13T14:52:48.415Z,2046
2019-04-13T14:53:48.469Z,2191
2019-04-13T14:54:49.992Z,2313
2019-04-13T14:55:49.549Z,2594
2019-04-13T14:56:48.560Z,3050
2019-04-13T14:57:48.617Z,3468
2019-04-13T14:58:48.650Z,3898
2019-04-13T14:59:49.463Z,4776
2019-04-13T15:00:48.804Z,6545
2019-04-13T15:01:48.827Z,8569
2019-04-13T15:02:48.839Z,10011
2019-04-13T15:03:48.884Z,11598
2019-04-13T15:04:48.974Z,16040
2019-04-13T15:05:49.018Z,16936
2019-04-13T15:06:49.081Z,39632
2019-04-13T15:07:49.238Z,15236
2019-04-13T15:08:49.247Z,14961
2019-04-13T15:09:52.448Z,24176
2019-04-13T15:10:51.035Z,19160
2019-04-13T15:11:50.411Z,15064
2019-04-13T15:12:49.440Z,18056
2019-04-13T15:13:49.547Z,16968
2019-04-13T15:14:49.632Z,15374
2019-04-13T15:15:50.548Z,16848
2019-04-13T15:16:51.138Z,19432
2019-04-13T15:17:51.481Z,26472
2019-04-13T15:18:50.770Z,34144
2019-04-13T15:20:01.447Z,31544
2019-04-13T15:20:55.229Z,24032
2019-04-13T15:21:50.945Z,30832
2019-04-13T15:22:54.885Z,38344
2019-04-13T15:23:51.448Z,37544
2019-04-13T15:24:53.242Z,34344
2019-04-13T15:25:51.180Z,31224
2019-04-13T15:26:52.101Z,25368
2019-04-13T15:27:53.743Z,17016
2019-04-13T15:28:51.471Z,12672
2019-04-13T15:29:51.981Z,11175
2019-04-13T15:30:53.631Z,7419
2019-04-13T15:31:51.423Z,5512
2019-04-13T15:32:51.493Z,4128
2019-04-13T15:33:54.778Z,3568
2019-04-13T15:34:51.604Z,3481
2019-04-13T15:35:56.734Z,3639
2019-04-13T15:36:53.108Z,3863
2019-04-13T15:37:52.670Z,4097
2019-04-13T15:38:50.771Z,4947
2019-04-13T15:39:53.067Z,5758
2019-04-13T15:40:54.253Z,6402
2019-04-13T15:42:01.712Z,6650
2019-04-13T15:42:58.544Z,7004
2019-04-13T15:43:52.521Z,7050
2019-04-13T15:44:53.888Z,7002
2019-04-13T15:45:52.202Z,7076
2019-04-13T15:46:52.210Z,7364
2019-04-13T15:47:53.152Z,7395
2019-04-13T15:48:52.389Z,6931
2019-04-13T15:49:52.543Z,6325
2019-04-13T15:50:53.197Z,6029
2019-04-13T15:51:51.479Z,5554
2019-04-13T15:52:51.560Z,5409
2019-04-13T15:53:51.755Z,5127
2019-04-13T15:54:53.656Z,4658
2019-04-13T15:55:52.683Z,4128
2019-04-13T15:56:53.061Z,3888
2019-04-13T15:57:51.817Z,3565
2019-04-13T15:58:51.873Z,3322
2019-04-13T15:59:53.993Z,3093
2019-04-13T16:00:53.030Z,2960
2019-04-13T16:01:52.101Z,3162
2019-04-13T16:02:54.127Z,3372
2019-04-13T16:03:53.223Z,3909
2019-04-13T16:04:52.292Z,4243
2019-04-13T16:05:52.592Z,4535
2019-04-13T16:06:53.611Z,4841
2019-04-13T16:07:52.927Z,4882
2019-04-13T16:08:53.596Z,5079
2019-04-13T16:09:53.295Z,5124
2019-04-13T16:10:52.848Z,5169
2019-04-13T16:11:57.959Z,5309
2019-04-13T16:12:53.759Z,5287
2019-04-13T16:13:52.715Z,5296
2019-04-13T16:14:54.721Z,5371
2019-04-13T16:15:53.897Z,5378
2019-04-13T16:16:52.905Z,5306
2019-04-13T16:17:53.830Z,5133
2019-04-13T16:18:54.170Z,5097
2019-04-13T16:19:53.103Z,4957
2019-04-13T16:20:53.245Z,4661
2019-04-13T16:21:53.898Z,4511
2019-04-13T16:22:54.329Z,4472
2019-04-13T16:23:54.148Z,4420
2019-04-13T16:24:54.666Z,4372
2019-04-13T16:25:53.669Z,4409
2019-04-13T16:26:53.454Z,4354
2019-04-13T16:27:53.498Z,4271
2019-04-13T16:28:54.705Z,4247
2019-04-13T16:29:55.455Z,4225
2019-04-13T16:30:55.495Z,4110
2019-04-13T16:31:53.609Z,4085
2019-04-13T16:32:53.623Z,4205
2019-04-13T16:33:54.179Z,4385
2019-04-13T16:34:55.190Z,4541
2019-04-13T16:35:53.929Z,4623
2019-04-13T16:36:54.052Z,4570
2019-04-13T16:37:54.869Z,4456
2019-04-13T16:39:02.530Z,4363
2019-04-13T16:39:55.774Z,4181
2019-04-13T16:40:54.310Z,3918
2019-04-13T16:42:01.210Z,3819
2019-04-13T16:42:55.233Z,3904
2019-04-13T16:43:54.305Z,3959
2019-04-13T16:44:56.057Z,4058
2019-04-13T16:45:55.451Z,4264
2019-04-13T16:46:54.487Z,4594
2019-04-13T16:47:54.505Z,4772
2019-04-13T16:49:04.394Z,5034
2019-04-13T16:49:56.558Z,5029
2019-04-13T16:50:55.841Z,5257
2019-04-13T16:51:54.715Z,5434
2019-04-13T16:52:55.045Z,5630
2019-04-13T16:53:55.777Z,5856
2019-04-13T16:54:59.921Z,5947
2019-04-13T16:55:56.041Z,6083
2019-04-13T16:56:54.789Z,6330
2019-04-13T16:57:56.631Z,6237
2019-04-13T16:58:55.809Z,5866
2019-04-13T16:59:54.903Z,5456
2019-04-13T17:00:55.955Z,4853
2019-04-13T17:01:56.821Z,4310
2019-04-13T17:02:55.111Z,3906
2019-04-13T17:03:55.169Z,3441
2019-04-13T17:04:55.340Z,3181
2019-04-13T17:05:56.086Z,3008
2019-04-13T17:06:57.397Z,3022
2019-04-13T17:07:55.496Z,2536
2019-04-13T17:08:55.652Z,2222
2019-04-13T17:09:56.519Z,1969
2019-04-13T17:10:56.328Z,1741
2019-04-13T17:12:01.757Z,1536
2019-04-13T17:12:56.954Z,1364
2019-04-13T17:13:55.819Z,1212
2019-04-13T17:14:56.343Z,1230
2019-04-13T17:15:56.270Z,1201
2019-04-13T17:16:56.967Z,1059
2019-04-13T17:17:57.094Z,940
2019-04-13T17:18:56.778Z,910
2019-04-13T17:19:57.755Z,958
2019-04-13T17:20:56.191Z,1024
2019-04-13T17:21:56.574Z,1042
2019-04-13T17:22:56.310Z,1113
2019-04-13T17:23:56.411Z,1231
2019-04-13T17:24:57.460Z,1266
2019-04-13T17:25:56.389Z,1330
2019-04-13T17:26:56.504Z,1422
2019-04-13T17:28:05.357Z,1470
2019-04-13T17:28:57.939Z,1483
2019-04-13T17:29:58.706Z,1504
2019-04-13T17:30:57.072Z,1536
2019-04-13T17:31:57.539Z,1533
2019-04-13T17:32:56.675Z,1569
2019-04-13T17:33:58.388Z,1544
2019-04-13T17:34:57.710Z,1546
2019-04-13T17:35:57.819Z,1527
2019-04-13T17:36:56.918Z,1519
2019-04-13T17:37:57.031Z,1491
2019-04-13T17:38:57.877Z,1482
2019-04-13T17:39:59.089Z,1474
2019-04-13T17:40:57.190Z,1547
2019-04-13T17:41:57.197Z,1488
2019-04-13T17:42:57.418Z,1453
2019-04-13T17:43:57.378Z,1456
2019-04-13T17:44:58.231Z,1401
2019-04-13T17:45:59.086Z,1295
2019-04-13T17:46:57.517Z,1252
2019-04-13T17:47:58.014Z,1173
2019-04-13T17:48:58.368Z,1086
2019-04-13T17:49:59.292Z,1014
2019-04-13T17:50:58.157Z,975
2019-04-13T17:51:58.867Z,870
2019-04-13T17:52:57.872Z,840
2019-04-13T17:53:57.871Z,800
2019-04-13T17:54:58.147Z,704
2019-04-13T17:55:59.120Z,730
2019-04-13T17:56:58.907Z,663
2019-04-13T17:57:58.966Z,658
2019-04-13T17:58:58.017Z,612
2019-04-13T17:59:59.293Z,590
2019-04-13T18:00:58.118Z,569
2019-04-13T18:01:58.438Z,528
2019-04-13T18:02:59.075Z,484
2019-04-13T18:04:01.675Z,450
2019-04-13T18:04:58.332Z,440
2019-04-13T18:05:58.666Z,407
2019-04-13T18:06:58.746Z,359
2019-04-13T18:07:59.340Z,325
2019-04-13T18:09:01.738Z,295
2019-04-13T18:09:58.674Z,279
2019-04-13T18:10:58.945Z,253
2019-04-13T18:11:59.225Z,225
2019-04-13T18:13:00.926Z,200
2019-04-13T18:14:01.020Z,178
2019-04-13T18:15:00.938Z,163
2019-04-13T18:16:00.204Z,152
2019-04-13T18:17:00.295Z,142
2019-04-13T18:17:59.667Z,128
2019-04-13T18:19:00.409Z,116
2019-04-13T18:20:00.690Z,104
2019-04-13T18:21:01.438Z,94
2019-04-13T18:22:00.678Z,91
2019-04-13T18:23:00.797Z,87
2019-04-13T18:23:59.861Z,81
2019-04-13T18:25:01.271Z,72
2019-04-13T18:26:01.250Z,62
2019-04-13T18:27:00.825Z,51
2019-04-13T18:28:00.204Z,41
2019-04-13T18:29:00.931Z,32
2019-04-13T18:30:10.056Z,25
2019-04-13T18:31:02.106Z,18
2019-04-13T18:32:01.521Z,13
2019-04-13T18:33:01.617Z,11
2019-04-13T18:34:01.855Z,9
2019-04-13T18:35:02.757Z,8
2019-04-13T18:36:00.814Z,7
2019-04-13T18:37:01.461Z,7
2019-04-13T18:38:01.684Z,6
2019-04-13T18:39:02.524Z,6
2019-04-13T18:40:01.423Z,5
2019-04-13T18:41:01.661Z,5
2019-04-13T18:42:01.461Z,4
2019-04-13T18:43:09.055Z,3
2019-04-13T18:44:02.901Z,2
2019-04-13T18:45:01.865Z,1
2019-04-13T18:46:03.519Z,1
2019-04-13T18:47:03.550Z,1
2019-04-13T18:48:04.131Z,1
2019-04-13T18:49:03.215Z,0
2019-04-13T18:50:01.966Z,0
2019-04-13T18:51:02.057Z,0
2019-04-13T18:52:03.144Z,0
2019-04-13T18:53:05.167Z,0
2019-04-13T18:54:03.039Z,0
2019-04-13T18:55:03.693Z,0
2019-04-13T18:56:02.632Z,0
2019-04-13T18:57:04.647Z,0
2019-04-13T18:58:03.342Z,0
2019-04-13T18:59:04.416Z,0
2019-04-13T19:00:03.135Z,0
2019-04-13T19:01:03.696Z,0
2019-04-13T19:02:03.846Z,0
2019-04-13T19:03:04.940Z,0
2019-04-13T19:04:03.197Z,0
2019-04-13T19:05:03.288Z,0
2019-04-13T19:06:03.382Z,0
2019-04-13T19:07:03.468Z,0
2019-04-13T19:08:03.555Z,0
2019-04-13T19:09:03.685Z,0
2019-04-13T19:10:03.719Z,0
2019-04-13T19:11:03.807Z,0
2019-04-13T19:12:03.884Z,0
2019-04-13T19:13:06.265Z,0
2019-04-13T19:14:04.053Z,0
2019-04-13T19:15:04.131Z,0
2019-04-13T19:16:04.257Z,0
2019-04-13T19:17:04.324Z,0
2019-04-13T19:18:04.472Z,0
2019-04-13T19:19:04.573Z,0
2019-04-13T19:20:04.648Z,0
2019-04-13T19:21:04.807Z,0
2019-04-13T19:22:04.773Z,0
2019-04-13T19:23:04.869Z,0
2019-04-13T19:24:05.125Z,0
2019-04-13T19:25:05.049Z,0
2019-04-13T19:26:05.117Z,0
2019-04-13T19:27:05.189Z,0
2019-04-13T19:28:05.254Z,0
2019-04-13T19:29:05.371Z,0
2019-04-13T19:30:05.475Z,0
2019-04-13T19:31:05.580Z,0
2019-04-13T19:32:05.649Z,0
2019-04-13T19:33:05.704Z,0
2019-04-13T19:34:05.776Z,0
2019-04-13T19:35:05.893Z,0
2019-04-13T19:36:05.979Z,0
2019-04-13T19:37:05.960Z,0
2019-04-13T19:38:06.086Z,0
2019-04-13T19:39:06.183Z,0
2019-04-13T19:40:06.294Z,0
2019-04-13T19:41:06.396Z,0
2019-04-13T19:42:06.477Z,0
2019-04-13T19:43:15.755Z,0
2019-04-13T19:44:07.601Z,0
2019-04-13T19:45:07.283Z,0
2019-04-13T19:46:06.875Z,0
2019-04-13T19:47:06.945Z,0
2019-04-13T19:48:07.037Z,0
2019-04-13T19:49:07.141Z,0
2019-04-13T19:50:07.256Z,0
2019-04-13T19:51:07.327Z,0
2019-04-13T19:52:07.456Z,0
2019-04-13T19:53:07.517Z,0
2019-04-13T19:54:07.623Z,0
2019-04-13T19:55:08.486Z,0
2019-04-13T19:56:07.880Z,0
2019-04-13T19:57:08.078Z,0
2019-04-13T19:58:08.168Z,0
2019-04-13T19:59:08.289Z,0
2019-04-13T20:00:08.412Z,0
2019-04-13T20:01:08.503Z,0
2019-04-13T20:02:08.563Z,0
2019-04-13T20:03:08.512Z,0
2019-04-13T20:04:08.592Z,0
2019-04-13T20:05:08.673Z,0
2019-04-13T20:06:18.457Z,0
2019-04-13T20:07:09.831Z,0
2019-04-13T20:08:09.154Z,0
2019-04-13T20:09:10.099Z,0
2019-04-13T20:10:09.229Z,0
2019-04-13T20:11:09.327Z,0
2019-04-13T20:12:09.453Z,0
2019-04-13T20:13:10.714Z,0
2019-04-13T20:14:13.938Z,0
2019-04-13T20:15:11.817Z,0
2019-04-13T20:16:10.324Z,0
2019-04-13T20:17:09.880Z,0
2019-04-13T20:18:09.858Z,0
2019-04-13T20:19:09.994Z,0
2019-04-13T20:20:10.122Z,0
2019-04-13T20:21:10.339Z,0
2019-04-13T20:22:10.272Z,0
2019-04-13T20:23:10.343Z,0
2019-04-13T20:24:10.425Z,0
2019-04-13T20:25:11.347Z,0
2019-04-13T20:26:12.119Z,0
2019-04-13T20:27:11.083Z,0
2019-04-13T20:28:11.583Z,0
2019-04-13T20:29:12.022Z,0
2019-04-13T20:30:10.951Z,0
2019-04-13T20:31:11.553Z,0
2019-04-13T20:32:12.402Z,0
2019-04-13T20:33:11.231Z,0
2019-04-13T20:34:12.019Z,0
2019-04-13T20:35:12.620Z,0
2019-04-13T20:36:16.307Z,0
2019-04-13T20:37:12.604Z,0
2019-04-13T20:38:12.899Z,0
2019-04-13T20:39:11.772Z,0
2019-04-13T20:40:12.101Z,0
2019-04-13T20:41:12.662Z,0
2019-04-13T20:42:18.254Z,0
2019-04-13T20:43:14.147Z,0
2019-04-13T20:44:14.448Z,0
2019-04-13T20:45:13.588Z,0
2019-04-13T20:46:12.577Z,0
2019-04-13T20:47:13.393Z,0
2019-04-13T20:48:13.974Z,0
2019-04-13T20:49:13.587Z,0
2019-04-13T20:50:13.697Z,0
2019-04-13T20:51:12.855Z,0
2019-04-13T20:52:12.863Z,0
2019-04-13T20:53:12.962Z,0
2019-04-13T20:54:13.045Z,0
2019-04-13T20:55:14.392Z,0
2019-04-13T20:56:14.250Z,0
2019-04-13T20:57:15.202Z,0
2019-04-13T20:58:14.302Z,0
2019-04-13T20:59:13.382Z,0
2019-04-13T21:00:13.947Z,0
2019-04-13T21:01:14.655Z,0
2019-04-13T21:02:13.625Z,0
2019-04-13T21:03:14.731Z,0
2019-04-13T21:04:15.034Z,0
2019-04-13T21:05:14.266Z,0
2019-04-13T21:06:14.957Z,0
2019-04-13T21:07:14.045Z,0
2019-04-13T21:08:14.738Z,0
2019-04-13T21:09:16.177Z,0
2019-04-13T21:10:14.258Z,0
2019-04-13T21:11:14.338Z,0
2019-04-13T21:12:14.408Z,0
2019-04-13T21:13:14.547Z,0
2019-04-13T21:14:19.374Z,0
2019-04-13T21:15:16.058Z,0
2019-04-13T21:16:15.679Z,0
2019-04-13T21:17:15.746Z,0
2019-04-13T21:18:14.867Z,0
2019-04-13T21:19:15.373Z,0
2019-04-13T21:20:16.555Z,0
2019-04-13T21:21:15.115Z,0
2019-04-13T21:22:16.176Z,0
2019-04-13T21:23:15.294Z,0
2019-04-13T21:24:15.605Z,0
2019-04-13T21:25:16.246Z,0
2019-04-13T21:26:17.393Z,0
2019-04-13T21:27:16.570Z,0
2019-04-13T21:28:16.842Z,0
2019-04-13T21:29:15.711Z,0
2019-04-13T21:30:16.438Z,0
2019-04-13T21:31:17.085Z,0
2019-04-13T21:32:16.165Z,0
2019-04-13T21:33:16.840Z,0
2019-04-13T21:34:16.068Z,0
2019-04-13T21:35:16.459Z,0
2019-04-13T21:36:17.316Z,0
2019-04-13T21:37:18.278Z,0
2019-04-13T21:38:17.320Z,0
2019-04-13T21:39:16.439Z,0
2019-04-13T21:40:18.642Z,0
2019-04-13T21:41:17.368Z,0
2019-04-13T21:42:17.573Z,0
2019-04-13T21:43:17.224Z,0
2019-04-13T21:44:23.563Z,0
2019-04-13T21:45:18.854Z,0
2019-04-13T21:46:17.303Z,0
2019-04-13T21:47:18.370Z,0
2019-04-13T21:48:17.386Z,0
2019-04-13T21:49:18.520Z,0
2019-04-13T21:50:17.356Z,0
2019-04-13T21:51:18.357Z,0
2019-04-13T21:52:19.183Z,0
2019-04-13T21:53:18.472Z,0
2019-04-13T21:54:18.898Z,0
2019-04-13T21:55:17.880Z,0
2019-04-13T21:56:18.714Z,0
2019-04-13T21:57:19.755Z,0
2019-04-13T21:58:18.784Z,0
2019-04-13T21:59:17.895Z,0
2019-04-13T22:00:18.165Z,0
2019-04-13T22:01:19.026Z,0
2019-04-13T22:02:20.207Z,0
2019-04-13T22:03:19.218Z,0
2019-04-13T22:04:18.324Z,0
2019-04-13T22:05:18.483Z,0
2019-04-13T22:06:19.057Z,0
2019-04-13T22:07:19.927Z,0
2019-04-13T22:08:18.776Z,0
2019-04-13T22:09:19.570Z,0
2019-04-13T22:10:20.325Z,0
2019-04-13T22:11:21.083Z,0
2019-04-13T22:12:19.954Z,0
2019-04-13T22:13:20.574Z,0
2019-04-13T22:14:29.257Z,0
2019-04-13T22:15:20.352Z,0
2019-04-13T22:16:19.275Z,0
2019-04-13T22:17:20.383Z,0
2019-04-13T22:18:19.425Z,0
2019-04-13T22:19:19.946Z,0
2019-04-13T22:20:21.128Z,0
2019-04-13T22:21:19.848Z,0
2019-04-13T22:22:20.779Z,0
2019-04-13T22:23:21.464Z,0
2019-04-13T22:24:20.910Z,0
2019-04-13T22:25:20.956Z,0
2019-04-13T22:26:20.107Z,0
2019-04-13T22:27:20.365Z,0
2019-04-13T22:28:21.543Z,0
2019-04-13T22:29:20.360Z,0
2019-04-13T22:30:21.196Z,0
2019-04-13T22:31:22.015Z,0
2019-04-13T22:32:21.627Z,0
2019-04-13T22:33:21.612Z,0
2019-04-13T22:34:20.787Z,0
2019-04-13T22:35:21.421Z,0
2019-04-13T22:36:22.418Z,0
2019-04-13T22:37:21.094Z,0
2019-04-13T22:38:21.895Z,0
2019-04-13T22:39:22.242Z,0
2019-04-13T22:40:21.457Z,0
2019-04-13T22:41:22.148Z,0
2019-04-13T22:42:23.028Z,0
2019-04-13T22:43:21.735Z,0
2019-04-13T22:44:22.461Z,0
2019-04-13T22:45:23.335Z,0
2019-04-13T22:46:21.722Z,0
2019-04-13T22:47:21.853Z,0
2019-04-13T22:48:22.378Z,0
2019-04-13T22:49:21.994Z,0
2019-04-13T22:50:22.098Z,0
2019-04-13T22:51:22.903Z,0
2019-04-13T22:52:23.491Z,0
2019-04-13T22:53:22.362Z,0
2019-04-13T22:54:23.478Z,0
2019-04-13T22:55:22.865Z,0
2019-04-13T22:56:24.546Z,0
2019-04-13T22:57:23.767Z,0
2019-04-13T22:58:23.567Z,0
2019-04-13T22:59:22.810Z,0
2019-04-13T23:00:23.752Z,0
2019-04-13T23:01:24.391Z,0
2019-04-13T23:02:24.025Z,0
2019-04-13T23:03:24.171Z,0
2019-04-13T23:04:23.371Z,0
2019-04-13T23:05:24.333Z,0
2019-04-13T23:06:24.885Z,0
2019-04-13T23:07:24.677Z,0
2019-04-13T23:08:24.863Z,0
2019-04-13T23:09:23.549Z,0
2019-04-13T23:10:24.572Z,0
2019-04-13T23:11:23.647Z,0
2019-04-13T23:12:24.529Z,0
2019-04-13T23:13:25.354Z,0
2019-04-13T23:14:24.642Z,0
2019-04-13T23:15:29.107Z,0
2019-04-13T23:16:25.705Z,0
2019-04-13T23:17:24.441Z,0
2019-04-13T23:18:25.382Z,0
2019-04-13T23:19:24.101Z,0
2019-04-13T23:20:23.971Z,0
2019-04-13T23:21:24.331Z,0
2019-04-13T23:22:24.121Z,0
2019-04-13T23:23:25.224Z,0
2019-04-13T23:24:24.271Z,0
2019-04-13T23:25:26.491Z,0
2019-04-13T23:26:25.461Z,0
2019-04-13T23:27:24.441Z,0
2019-04-13T23:28:24.936Z,0
2019-04-13T23:29:25.645Z,0
2019-04-13T23:30:24.973Z,0
2019-04-13T23:31:25.720Z,0
2019-04-13T23:32:24.904Z,0
2019-04-13T23:33:25.595Z,0
2019-04-13T23:34:26.784Z,0
2019-04-13T23:35:25.927Z,0
2019-04-13T23:36:25.004Z,0
2019-04-13T23:37:25.492Z,0
2019-04-13T23:38:26.709Z,0
2019-04-13T23:39:25.636Z,0
2019-04-13T23:40:25.326Z,0
2019-04-13T23:41:25.473Z,0
2019-04-13T23:42:26.440Z,0
2019-04-13T23:43:27.813Z,0
2019-04-13T23:44:26.707Z,0
2019-04-13T23:45:30.167Z,0
2019-04-13T23:46:26.654Z,0
2019-04-13T23:47:25.748Z,0
2019-04-13T23:48:26.440Z,0
2019-04-13T23:49:25.815Z,0
2019-04-13T23:50:26.335Z,0
2019-04-13T23:51:26.005Z,0
2019-04-13T23:52:26.111Z,0
2019-04-13T23:53:27.195Z,0
2019-04-13T23:54:28.243Z,0
2019-04-13T23:55:27.285Z,0
2019-04-13T23:56:26.383Z,0
2019-04-13T23:57:27.078Z,0
2019-04-13T23:58:27.718Z,0
2019-04-13T23:59:26.672Z,0
